createdAt,value
2018-08-18T00:00:33.462Z,3.00
2018-08-18T00:03:03.431Z,3.30
2018-08-18T00:05:33.036Z,2.90
2018-08-18T00:08:02.772Z,2.13
2018-08-18T00:10:32.244Z,2.07
2018-08-18T00:13:10.936Z,2.07
2018-08-18T00:15:40.547Z,2.30
2018-08-18T00:18:10.103Z,2.47
2018-08-18T00:20:39.544Z,2.60
2018-08-18T00:23:09.310Z,2.30
2018-08-18T00:25:39.051Z,2.63
2018-08-18T00:28:20.805Z,2.47
2018-08-18T00:30:50.425Z,2.50
2018-08-18T00:33:19.826Z,2.70
2018-08-18T00:35:49.627Z,8.20
2018-08-18T00:38:19.303Z,3.70
2018-08-18T00:40:48.687Z,2.43
2018-08-18T00:43:18.132Z,3.03
2018-08-18T00:45:47.547Z,2.70
2018-08-18T00:48:16.957Z,3.70
2018-08-18T00:50:46.374Z,4.17
2018-08-18T00:53:16.130Z,4.90
2018-08-18T00:55:46.147Z,3.93
2018-08-18T00:58:21.429Z,5.40
2018-08-18T01:00:56.655Z,4.70
2018-08-18T01:03:26.335Z,5.60
2018-08-18T01:06:00.033Z,5.47
2018-08-18T01:08:29.829Z,4.90
2018-08-18T01:10:59.679Z,4.73
2018-08-18T01:13:29.593Z,4.70
2018-08-18T01:15:59.532Z,4.10
2018-08-18T01:18:29.141Z,5.90
2018-08-18T01:20:58.577Z,5.57
2018-08-18T01:23:28.300Z,4.23
2018-08-18T01:25:57.923Z,4.17
2018-08-18T01:28:27.314Z,4.07
2018-08-18T01:31:05.515Z,4.77
2018-08-18T01:33:35.259Z,4.47
2018-08-18T01:36:05.185Z,4.07
2018-08-18T01:38:36.315Z,4.93
2018-08-18T01:41:12.691Z,5.10
2018-08-18T01:43:44.077Z,5.70
2018-08-18T01:46:16.363Z,4.73
2018-08-18T01:48:48.219Z,4.53
2018-08-18T01:51:20.022Z,5.70
2018-08-18T01:53:49.555Z,4.90
2018-08-18T01:56:19.977Z,7.07
2018-08-18T02:01:18.608Z,5.03
2018-08-18T02:03:48.432Z,6.67
2018-08-18T02:06:18.361Z,6.03
2018-08-18T02:08:58.055Z,6.40
2018-08-18T02:11:27.749Z,6.30
2018-08-18T02:13:57.595Z,7.13
2018-08-18T02:16:27.879Z,6.83
2018-08-18T02:18:57.654Z,7.63
2018-08-18T02:21:31.381Z,8.40
2018-08-18T02:24:03.731Z,10.00
2018-08-18T02:26:34.774Z,8.10
2018-08-18T02:29:04.658Z,9.93
2018-08-18T02:31:34.403Z,9.57
2018-08-18T02:34:04.276Z,9.27
2018-08-18T02:36:34.787Z,8.80
2018-08-18T02:39:04.717Z,9.40
2018-08-18T02:41:34.167Z,9.43
2018-08-18T02:44:03.943Z,10.47
2018-08-18T02:46:36.649Z,11.53
2018-08-18T02:49:06.463Z,11.13
2018-08-18T02:51:36.675Z,10.33
2018-08-18T02:54:06.086Z,12.10
2018-08-18T02:56:42.967Z,10.87
2018-08-18T02:59:12.586Z,10.13
2018-08-18T03:01:46.019Z,12.80
2018-08-18T03:04:15.637Z,11.20
2018-08-18T03:06:45.402Z,10.00
2018-08-18T03:09:14.991Z,9.77
2018-08-18T03:11:44.744Z,9.73
2018-08-18T03:14:14.734Z,9.70
2018-08-18T03:16:44.378Z,9.73
2018-08-18T03:19:13.796Z,10.20
2018-08-18T03:21:43.851Z,10.80
2018-08-18T03:24:16.772Z,11.37
2018-08-18T03:26:48.287Z,10.97
2018-08-18T03:29:18.856Z,11.63
2018-08-18T03:31:49.224Z,10.97
2018-08-18T03:34:19.563Z,10.30
2018-08-18T03:36:50.541Z,11.07
2018-08-18T03:39:27.149Z,11.73
2018-08-18T03:42:00.348Z,11.37
2018-08-18T03:44:29.784Z,14.25
2018-08-18T03:46:59.585Z,10.90
2018-08-18T03:49:29.171Z,11.90
2018-08-18T03:51:58.644Z,12.67
2018-08-18T03:54:28.023Z,11.40
2018-08-18T03:56:57.513Z,15.83
2018-08-18T03:59:26.949Z,12.97
2018-08-18T04:01:58.674Z,12.57
2018-08-18T04:04:29.863Z,11.27
2018-08-18T04:07:00.595Z,11.13
2018-08-18T04:09:34.224Z,12.17
2018-08-18T04:12:05.237Z,12.13
2018-08-18T04:14:43.063Z,12.63
2018-08-18T04:17:18.013Z,12.60
2018-08-18T04:19:47.989Z,13.27
2018-08-18T04:22:17.686Z,11.43
2018-08-18T04:24:47.952Z,11.70
2018-08-18T04:27:35.585Z,14.10
2018-08-18T04:30:08.463Z,11.63
2018-08-18T04:32:59.960Z,11.43
2018-08-18T04:35:30.583Z,11.33
2018-08-18T04:38:01.476Z,16.90
2018-08-18T04:40:30.957Z,11.60
2018-08-18T04:43:03.353Z,12.90
2018-08-18T04:45:33.095Z,12.77
2018-08-18T04:48:05.121Z,14.23
2018-08-18T04:50:34.543Z,16.53
2018-08-18T04:53:04.327Z,15.57
2018-08-18T04:55:33.943Z,15.87
2018-08-18T04:58:03.384Z,18.53
2018-08-18T05:00:32.777Z,20.53
2018-08-18T05:03:02.295Z,17.57
2018-08-18T05:05:32.768Z,17.57
2018-08-18T05:08:02.418Z,19.80
2018-08-18T05:10:33.185Z,18.10
2018-08-18T05:13:02.947Z,18.20
2018-08-18T05:15:32.955Z,19.70
2018-08-18T05:18:02.575Z,20.80
2018-08-18T05:20:32.089Z,18.20
2018-08-18T05:23:11.309Z,17.40
2018-08-18T05:25:41.152Z,16.30
2018-08-18T05:28:10.527Z,18.07
2018-08-18T05:30:40.752Z,20.47
2018-08-18T05:33:11.141Z,17.60
2018-08-18T05:35:42.726Z,17.53
2018-08-18T05:38:12.375Z,17.17
2018-08-18T05:40:41.844Z,17.20
2018-08-18T05:43:11.475Z,17.10
2018-08-18T05:45:40.890Z,17.33
2018-08-18T05:48:10.509Z,16.70
2018-08-18T05:50:39.935Z,18.80
2018-08-18T05:53:18.817Z,17.30
2018-08-18T05:55:49.005Z,17.20
2018-08-18T05:58:18.855Z,16.23
2018-08-18T06:00:49.849Z,19.63
2018-08-18T06:03:21.355Z,16.70
2018-08-18T06:05:51.157Z,16.63
2018-08-18T06:08:20.835Z,17.10
2018-08-18T06:10:50.240Z,15.57
2018-08-18T06:13:22.559Z,16.47
2018-08-18T06:16:01.917Z,23.20
2018-08-18T06:18:31.376Z,16.17
2018-08-18T06:21:00.808Z,14.53
2018-08-18T06:23:30.298Z,14.43
2018-08-18T06:26:00.291Z,12.80
2018-08-18T06:28:30.097Z,12.87
2018-08-18T06:31:00.145Z,11.50
2018-08-18T06:33:30.235Z,13.33
2018-08-18T06:36:00.525Z,15.03
2018-08-18T06:38:30.529Z,13.57
2018-08-18T06:41:01.561Z,12.53
2018-08-18T06:43:32.163Z,11.67
2018-08-18T06:46:04.045Z,12.20
2018-08-18T06:48:35.785Z,10.80
2018-08-18T06:51:05.696Z,11.00
2018-08-18T06:53:40.413Z,10.40
2018-08-18T06:56:10.253Z,12.37
2018-08-18T06:58:39.937Z,10.23
2018-08-18T07:01:09.961Z,10.10
2018-08-18T07:03:47.519Z,11.80
2018-08-18T07:06:17.911Z,10.50
2018-08-18T07:08:52.705Z,10.47
2018-08-18T07:11:22.201Z,12.10
2018-08-18T07:13:51.693Z,9.17
2018-08-18T07:16:21.164Z,11.43
2018-08-18T07:18:50.747Z,8.50
2018-08-18T07:21:20.308Z,9.47
2018-08-18T07:23:49.931Z,6.80
2018-08-18T07:26:19.975Z,8.23
2018-08-18T07:28:49.829Z,9.20
2018-08-18T07:31:19.803Z,6.50
2018-08-18T07:33:49.697Z,6.93
2018-08-18T07:36:21.877Z,5.40
2018-08-18T07:38:51.561Z,5.93
2018-08-18T07:41:21.015Z,4.47
2018-08-18T07:43:50.441Z,8.40
2018-08-18T07:46:19.922Z,6.00
2018-08-18T07:48:50.965Z,5.07
2018-08-18T07:51:20.732Z,7.40
2018-08-18T07:53:50.466Z,5.37
2018-08-18T07:56:20.493Z,4.20
2018-08-18T07:58:50.492Z,4.13
2018-08-18T08:01:20.173Z,4.87
2018-08-18T08:03:49.605Z,4.80
2018-08-18T08:06:19.057Z,4.77
2018-08-18T08:08:48.887Z,7.13
2018-08-18T08:11:18.341Z,3.90
2018-08-18T08:13:47.789Z,5.43
2018-08-18T08:16:17.255Z,3.53
2018-08-18T08:18:46.675Z,6.60
2018-08-18T08:21:16.100Z,8.00
2018-08-18T08:23:45.571Z,3.40
2018-08-18T08:26:15.002Z,4.60
2018-08-18T08:28:44.458Z,2.43
2018-08-18T08:31:14.305Z,1.57
2018-08-18T08:33:44.290Z,2.30
2018-08-18T08:36:18.177Z,2.90
2018-08-18T08:38:49.818Z,3.07
2018-08-18T08:41:19.667Z,3.70
2018-08-18T08:43:49.328Z,4.03
2018-08-18T08:46:19.003Z,2.50
2018-08-18T08:48:55.786Z,3.70
2018-08-18T08:51:25.905Z,3.90
2018-08-18T08:53:56.501Z,3.37
2018-08-18T08:56:31.677Z,3.07
2018-08-18T08:59:01.745Z,5.77
2018-08-18T09:01:31.768Z,5.13
2018-08-18T09:04:06.222Z,5.27
2018-08-18T09:06:35.701Z,1.53
2018-08-18T09:09:07.729Z,3.83
2018-08-18T09:11:38.473Z,7.90
2018-08-18T09:14:08.345Z,6.63
2018-08-18T09:16:37.855Z,4.97
2018-08-18T09:19:07.699Z,3.20
2018-08-18T09:21:41.385Z,3.03
2018-08-18T09:24:11.213Z,3.83
2018-08-18T09:26:45.974Z,4.90
2018-08-18T09:29:16.006Z,2.43
2018-08-18T09:31:46.953Z,6.70
2018-08-18T09:34:16.762Z,3.03
2018-08-18T09:36:47.243Z,3.10
2018-08-18T09:39:33.179Z,4.40
2018-08-18T09:42:08.557Z,3.80
2018-08-18T09:44:41.854Z,3.03
2018-08-18T09:47:11.373Z,3.10
2018-08-18T09:49:40.889Z,2.53
2018-08-18T09:52:14.005Z,3.53
2018-08-18T09:54:43.849Z,5.73
2018-08-18T09:57:14.103Z,6.87
2018-08-18T09:59:44.192Z,2.30
2018-08-18T10:02:14.669Z,4.30
2018-08-18T10:04:44.439Z,5.90
2018-08-18T10:07:14.515Z,3.57
2018-08-18T10:09:44.249Z,4.60
2018-08-18T10:12:13.719Z,2.70
2018-08-18T10:14:43.246Z,3.80
2018-08-18T10:17:12.648Z,2.73
2018-08-18T10:19:42.499Z,2.43
2018-08-18T10:22:12.595Z,4.10
2018-08-18T10:24:42.645Z,2.77
2018-08-18T10:27:12.678Z,4.90
2018-08-18T10:29:42.619Z,3.53
2018-08-18T10:32:12.232Z,2.80
2018-08-18T10:34:41.649Z,1.90
2018-08-18T10:37:11.573Z,4.20
2018-08-18T10:39:41.002Z,3.53
2018-08-18T10:42:15.278Z,3.57
2018-08-18T10:44:50.626Z,3.60
2018-08-18T10:47:21.941Z,3.83
2018-08-18T10:50:03.149Z,7.17
2018-08-18T10:52:44.370Z,2.77
2018-08-18T10:55:15.844Z,2.53
2018-08-18T10:57:51.994Z,2.20
2018-08-18T11:00:23.551Z,3.30
2018-08-18T11:02:54.341Z,9.30
2018-08-18T11:05:25.068Z,7.07
2018-08-18T11:08:00.335Z,5.60
2018-08-18T11:10:30.983Z,3.57
2018-08-18T11:13:00.449Z,3.73
2018-08-18T11:15:30.307Z,2.30
2018-08-18T11:18:00.651Z,4.50
2018-08-18T11:20:31.629Z,6.10
2018-08-18T11:23:06.393Z,2.57
2018-08-18T11:25:39.520Z,2.30
2018-08-18T11:28:09.604Z,3.10
2018-08-18T11:30:39.453Z,6.07
2018-08-18T11:33:09.090Z,2.93
2018-08-18T11:35:39.235Z,4.63
2018-08-18T11:38:12.175Z,3.10
2018-08-18T11:40:41.675Z,2.80
2018-08-18T11:43:12.742Z,2.70
2018-08-18T11:45:43.037Z,6.20
2018-08-18T11:48:19.058Z,2.90
2018-08-18T11:50:49.501Z,3.17
2018-08-18T11:53:19.175Z,2.50
2018-08-18T11:55:48.596Z,2.60
2018-08-18T11:58:20.146Z,3.30
2018-08-18T12:00:52.913Z,3.63
2018-08-18T12:03:25.073Z,3.83
2018-08-18T12:05:56.197Z,2.60
2018-08-18T12:08:27.511Z,4.30
2018-08-18T12:10:58.615Z,4.60
2018-08-18T12:13:33.709Z,5.43
2018-08-18T12:16:12.389Z,2.20
2018-08-18T12:18:43.858Z,1.90
2018-08-18T12:21:18.383Z,3.33
2018-08-18T12:23:48.347Z,2.50
2018-08-18T12:26:19.857Z,3.50
2018-08-18T12:28:52.033Z,3.43
2018-08-18T12:31:23.027Z,3.40
2018-08-18T12:33:52.845Z,2.50
2018-08-18T12:36:22.634Z,6.10
2018-08-18T12:38:56.652Z,2.23
2018-08-18T12:41:26.354Z,3.07
2018-08-18T12:43:57.035Z,4.30
2018-08-18T12:46:35.876Z,3.40
2018-08-18T12:49:05.924Z,4.43
2018-08-18T12:51:36.524Z,2.83
2018-08-18T12:54:06.165Z,2.03
2018-08-18T12:56:35.581Z,1.87
2018-08-18T12:59:07.492Z,2.50
2018-08-18T13:01:45.661Z,3.27
2018-08-18T13:04:16.664Z,3.20
2018-08-18T13:06:49.380Z,4.20
2018-08-18T13:09:22.247Z,2.92
2018-08-18T13:11:53.667Z,3.25
2018-08-18T13:14:24.903Z,4.23
2018-08-18T13:16:54.672Z,2.53
2018-08-18T13:19:29.965Z,2.87
2018-08-18T13:21:59.951Z,4.43
2018-08-18T13:24:29.828Z,2.87
2018-08-18T13:26:59.495Z,3.80
2018-08-18T13:29:28.916Z,4.73
2018-08-18T13:31:58.296Z,1.70
2018-08-18T13:34:27.701Z,3.57
2018-08-18T13:36:57.112Z,2.03
2018-08-18T13:39:26.535Z,2.37
2018-08-18T13:41:56.075Z,2.70
2018-08-18T13:44:30.836Z,3.67
2018-08-18T13:47:00.554Z,2.47
2018-08-18T13:49:30.166Z,3.90
2018-08-18T13:51:59.700Z,1.80
2018-08-18T13:54:29.661Z,2.70
2018-08-18T13:56:59.651Z,2.93
2018-08-18T13:59:39.556Z,3.17
2018-08-18T14:02:09.513Z,2.73
2018-08-18T14:04:39.930Z,3.37
2018-08-18T14:07:10.296Z,3.10
2018-08-18T14:09:42.875Z,2.93
2018-08-18T14:12:15.421Z,2.40
2018-08-18T14:14:46.290Z,5.47
2018-08-18T14:17:17.961Z,3.13
2018-08-18T14:19:47.867Z,2.70
2018-08-18T14:22:20.142Z,3.23
2018-08-18T14:24:50.219Z,3.13
2018-08-18T14:27:23.378Z,4.23
2018-08-18T14:29:53.136Z,2.70
2018-08-18T14:32:28.486Z,7.33
2018-08-18T14:35:02.645Z,3.73
2018-08-18T14:37:32.215Z,2.77
2018-08-18T14:40:01.747Z,3.13
2018-08-18T14:42:31.582Z,3.00
2018-08-18T14:45:01.527Z,3.37
2018-08-18T14:47:32.617Z,5.10
2018-08-18T14:50:14.647Z,5.13
2018-08-18T14:52:45.545Z,3.70
2018-08-18T14:55:16.132Z,3.90
2018-08-18T14:58:06.417Z,3.70
2018-08-18T15:00:36.036Z,3.60
2018-08-18T15:03:05.536Z,3.63
2018-08-18T15:05:35.080Z,4.67
2018-08-18T15:08:04.892Z,4.87
2018-08-18T15:10:37.761Z,3.80
2018-08-18T15:13:07.994Z,3.40
2018-08-18T15:15:38.151Z,4.80
2018-08-18T15:18:13.141Z,5.53
2018-08-18T15:20:43.310Z,3.50
2018-08-18T15:23:13.601Z,3.07
2018-08-18T15:25:44.500Z,4.63
2018-08-18T15:28:16.039Z,6.63
2018-08-18T15:30:51.306Z,5.00
2018-08-18T15:33:22.141Z,4.53
2018-08-18T15:35:51.654Z,4.77
2018-08-18T15:38:52.992Z,5.00
2018-08-18T15:41:23.696Z,4.97
2018-08-18T15:43:53.821Z,2.80
2018-08-18T15:46:23.633Z,3.17
2018-08-18T15:48:53.249Z,4.70
2018-08-18T15:51:22.937Z,6.20
2018-08-18T15:53:55.758Z,5.87
2018-08-18T15:56:26.427Z,5.17
2018-08-18T15:58:56.898Z,3.80
2018-08-18T16:01:29.212Z,3.00
2018-08-18T16:03:59.437Z,8.57
2018-08-18T16:06:29.129Z,2.43
2018-08-18T16:08:58.850Z,3.33
2018-08-18T16:11:29.216Z,4.07
2018-08-18T16:13:59.562Z,3.53
2018-08-18T16:16:29.165Z,4.87
2018-08-18T16:19:04.011Z,5.07
2018-08-18T16:21:34.065Z,4.47
2018-08-18T16:24:03.952Z,3.70
2018-08-18T16:26:33.544Z,5.40
2018-08-18T16:29:02.964Z,5.63
2018-08-18T16:31:32.683Z,7.23
2018-08-18T16:34:02.405Z,7.10
2018-08-18T16:36:37.187Z,5.13
2018-08-18T16:39:06.635Z,5.57
2018-08-18T16:41:36.419Z,7.27
2018-08-18T16:44:05.837Z,6.17
2018-08-18T16:46:35.602Z,3.97
2018-08-18T16:49:05.252Z,5.37
2018-08-18T16:51:34.652Z,7.20
2018-08-18T16:54:18.890Z,8.80
2018-08-18T16:56:48.496Z,6.37
2018-08-18T16:59:17.934Z,7.43
2018-08-18T17:01:47.706Z,11.93
2018-08-18T17:04:20.500Z,6.13
2018-08-18T17:06:50.318Z,5.50
2018-08-18T17:09:31.631Z,3.77
2018-08-18T17:12:17.088Z,6.83
2018-08-18T17:14:46.744Z,4.80
2018-08-18T17:17:16.170Z,5.57
2018-08-18T17:19:46.028Z,8.03
2018-08-18T17:22:15.879Z,4.70
2018-08-18T17:24:45.339Z,7.90
2018-08-18T17:27:14.798Z,4.63
2018-08-18T17:29:46.204Z,6.60
2018-08-18T17:32:15.914Z,4.63
2018-08-18T17:34:45.345Z,7.00
2018-08-18T17:37:14.837Z,4.83
2018-08-18T17:39:44.584Z,7.73
2018-08-18T17:42:14.410Z,7.10
2018-08-18T17:44:44.239Z,7.03
2018-08-18T17:47:13.936Z,6.57
2018-08-18T17:49:48.646Z,7.60
2018-08-18T17:52:18.422Z,4.70
2018-08-18T17:54:57.748Z,7.67
2018-08-18T17:57:27.181Z,6.20
2018-08-18T17:59:56.631Z,8.70
2018-08-18T18:02:26.010Z,5.37
2018-08-18T18:05:00.892Z,8.30
2018-08-18T18:07:30.354Z,9.87
2018-08-18T18:09:59.788Z,4.60
2018-08-18T18:12:31.365Z,9.43
2018-08-18T18:15:00.844Z,8.50
2018-08-18T18:17:30.232Z,6.67
2018-08-18T18:20:00.694Z,8.93
2018-08-18T18:22:35.034Z,7.40
2018-08-18T18:25:04.888Z,6.93
2018-08-18T18:27:34.521Z,9.77
2018-08-18T18:30:05.005Z,6.87
2018-08-18T18:32:34.443Z,7.73
2018-08-18T18:35:04.667Z,7.67
2018-08-18T18:37:34.588Z,6.93
2018-08-18T18:40:06.070Z,7.23
2018-08-18T18:42:35.614Z,7.03
2018-08-18T18:45:05.629Z,6.90
2018-08-18T18:47:35.020Z,8.13
2018-08-18T18:50:04.798Z,6.70
2018-08-18T18:52:34.848Z,7.53
2018-08-18T18:55:04.472Z,7.80
2018-08-18T18:57:33.898Z,6.73
2018-08-18T19:00:07.473Z,7.97
2018-08-18T19:02:43.120Z,7.40
2018-08-18T19:05:20.551Z,8.73
2018-08-18T19:07:55.934Z,9.70
2018-08-18T19:10:25.386Z,7.77
2018-08-18T19:12:56.202Z,8.73
2018-08-18T19:15:26.447Z,8.70
2018-08-18T19:17:56.144Z,8.63
2018-08-18T19:20:27.834Z,11.27
2018-08-18T19:23:05.253Z,9.50
2018-08-18T19:25:36.319Z,10.40
2018-08-18T19:28:05.968Z,10.43
2018-08-18T19:30:35.796Z,8.53
2018-08-18T19:33:05.443Z,9.60
2018-08-18T19:35:41.212Z,9.67
2018-08-18T19:38:11.725Z,8.87
2018-08-18T19:43:13.048Z,9.10
2018-08-18T19:45:42.949Z,8.40
2018-08-18T19:48:14.750Z,8.97
2018-08-18T19:50:49.359Z,8.37
2018-08-18T19:53:21.206Z,10.30
2018-08-18T19:55:50.866Z,9.73
2018-08-18T19:58:20.318Z,10.70
2018-08-18T20:00:49.734Z,10.20
2018-08-18T20:03:19.811Z,11.53
2018-08-18T20:05:49.286Z,9.30
2018-08-18T20:08:20.316Z,9.00
2018-08-18T20:10:55.165Z,11.67
2018-08-18T20:13:27.205Z,8.53
2018-08-18T20:16:00.376Z,6.47
2018-08-18T20:18:30.205Z,8.57
2018-08-18T20:21:00.051Z,8.57
2018-08-18T20:23:29.463Z,8.30
2018-08-18T20:25:59.707Z,8.50
2018-08-18T20:28:29.454Z,9.03
2018-08-18T20:30:59.402Z,9.50
2018-08-18T20:33:29.541Z,8.23
2018-08-18T20:35:59.231Z,8.47
2018-08-18T20:38:33.055Z,7.90
2018-08-18T20:41:05.053Z,7.53
2018-08-18T20:43:35.082Z,11.30
2018-08-18T20:46:04.987Z,7.73
2018-08-18T20:48:34.569Z,7.17
2018-08-18T20:51:03.972Z,10.57
2018-08-18T20:53:33.881Z,8.20
2018-08-18T20:56:03.664Z,7.30
2018-08-18T20:58:33.862Z,8.10
2018-08-18T21:01:03.574Z,6.37
2018-08-18T21:03:45.775Z,6.63
2018-08-18T21:06:16.770Z,6.30
2018-08-18T21:08:46.555Z,8.97
2018-08-18T21:11:16.366Z,7.53
2018-08-18T21:13:47.877Z,7.87
2018-08-18T21:16:18.105Z,7.13
2018-08-18T21:18:47.606Z,7.83
2018-08-18T21:21:24.830Z,7.00
2018-08-18T21:23:55.331Z,6.13
2018-08-18T21:26:25.409Z,5.87
2018-08-18T21:28:57.146Z,5.60
2018-08-18T21:31:33.784Z,6.80
2018-08-18T21:34:05.856Z,6.03
2018-08-18T21:36:35.796Z,5.70
2018-08-18T21:39:09.413Z,7.53
2018-08-18T21:41:40.539Z,6.20
2018-08-18T21:44:17.283Z,9.40
2018-08-18T21:46:46.806Z,6.27
2018-08-18T21:49:16.702Z,6.60
2018-08-18T21:51:46.472Z,7.73
2018-08-18T21:54:15.990Z,5.20
2018-08-18T21:56:45.502Z,5.07
2018-08-18T21:59:15.376Z,7.37
2018-08-18T22:01:45.064Z,8.03
2018-08-18T22:04:14.605Z,6.90
2018-08-18T22:06:44.524Z,6.03
2018-08-18T22:09:21.018Z,5.40
2018-08-18T22:11:50.610Z,6.40
2018-08-18T22:14:20.056Z,7.67
2018-08-18T22:16:56.265Z,8.10
2018-08-18T22:19:26.215Z,6.30
2018-08-18T22:21:56.013Z,5.00
2018-08-18T22:24:25.624Z,8.57
2018-08-18T22:26:55.057Z,8.07
2018-08-18T22:29:26.169Z,9.90
2018-08-18T22:31:55.865Z,6.43
2018-08-18T22:34:25.654Z,7.97
2018-08-18T22:36:55.966Z,6.93
2018-08-18T22:39:25.836Z,6.10
2018-08-18T22:41:55.781Z,6.70
2018-08-18T22:44:25.805Z,8.77
2018-08-18T22:46:55.200Z,8.67
2018-08-18T22:49:24.962Z,8.63
2018-08-18T22:51:54.905Z,7.67
2018-08-18T22:54:24.516Z,7.33
2018-08-18T22:56:59.613Z,11.27
2018-08-18T22:59:30.038Z,6.13
2018-08-18T23:02:01.760Z,6.93
2018-08-18T23:04:33.232Z,7.63
2018-08-18T23:07:03.690Z,6.97
2018-08-18T23:09:33.205Z,6.90
2018-08-18T23:12:03.885Z,6.67
2018-08-18T23:14:34.904Z,7.07
2018-08-18T23:17:04.375Z,7.17
2018-08-18T23:19:33.870Z,7.17
2018-08-18T23:22:03.802Z,12.50
2018-08-18T23:24:36.688Z,9.83
2018-08-18T23:27:06.339Z,9.67
2018-08-18T23:29:35.730Z,8.53
2018-08-18T23:32:13.836Z,8.60
2018-08-18T23:34:43.430Z,8.07
2018-08-18T23:37:19.729Z,7.60
2018-08-18T23:39:51.672Z,7.57
2018-08-18T23:42:22.003Z,8.37
2018-08-18T23:44:51.406Z,6.80
2018-08-18T23:47:21.065Z,6.60
2018-08-18T23:49:50.461Z,8.80
2018-08-18T23:52:20.288Z,8.00
2018-08-18T23:54:50.047Z,8.33
2018-08-18T23:57:19.496Z,10.00
2018-08-18T23:59:49.565Z,7.87
